• Join FlightAware (Why Join?)
  • Login
  • US Flag 
05:11AM EDT


 

Airport Tracker/Info


-or-


 

Live Flight TrackerFlight Track Log ✈ USC105 ✈ 04-Mar-2014 ✈ KDPA - KFWA

Flight Track Log - Related Links

Times and Time Zones

All times are in EST time to prevent confusion due to time zone crossing. See the USC105 flight status page for this flight to view local times or setup timezone preferences in your user account.

Time Position Orientation Groundspeed Altitude Reporting Facility
EST Latitude Longitude Course Direction KTS MPH feet Rate Location/Type
02:02AM 41.8633 -88.2181 98° East 117 135 3,600  Level Chicago Center
02:03AM 41.8486 -88.1711 113° Southeast 136 157 5,000 720 Climbing Chicago Center
02:04AM 41.8281 -88.1117 115° Southeast 181 208 5,100  Climbing Chicago Center
02:05AM 41.8094 -88.0419 110° East 197 227 5,000 -60 Descending Chicago Center
02:06AM 41.7914 -87.9719 109° East 198 228 5,000  Level Chicago Center
02:07AM 41.7982 -87.8711 152° Southeast  Level Estimated
02:07AM 41.7714 -87.9025 111° Southeast 199 229 5,000  Level Chicago Center
02:08AM 41.7522 -87.8331 110° East 199 229 5,000  Level Chicago Center
02:09AM 41.7325 -87.7631 111° Southeast 199 229 5,000  Level Chicago Center
02:11AM 41.6933 -87.6247 111° Southeast 197 227 5,000  Level Chicago Center
02:12AM 41.6742 -87.5558 110° East 197 227 5,000  Level Chicago Center
02:13AM 41.6547 -87.4869 111° Southeast 198 228 5,000  Level Chicago Center
02:14AM 41.6353 -87.4181 111° Southeast 198 228 5,000  Level Chicago Center
02:15AM 41.6156 -87.3489 111° Southeast 199 229 5,000  Level Chicago Center
02:16AM 41.5961 -87.2800 111° Southeast 200 230 5,000  Level Chicago Center
02:17AM 41.5767 -87.2131 111° Southeast 196 226 5,000  Level Chicago Center
02:18AM 41.5569 -87.1458 111° Southeast 193 222 5,000  Level Chicago Center
02:19AM 41.5381 -87.0767 110° East 198 228 5,000  Level Chicago Center
02:21AM 41.4981 -86.9400 111° Southeast 198 228 5,000  Level Chicago Center
02:22AM 41.4794 -86.8739 111° Southeast 191 220 5,000  Level Chicago Center
02:23AM 41.4594 -86.8061 111° Southeast 197 227 5,000  Level Chicago Center
02:24AM 41.4392 -86.7386 112° Southeast 197 227 5,000  Level Chicago Center
02:25AM 41.4219 -86.6800 111° Southeast 196 226 5,000  Level Chicago Center
02:26AM 41.4014 -86.6111 112° Southeast 199 229 5,000  Level Chicago Center
02:27AM 41.3831 -86.5453 110° East 194 223 5,000  Level Chicago Center
02:28AM 41.3631 -86.4772 111° Southeast 197 227 5,000  Level Chicago Center
02:29AM 41.3431 -86.4092 111° Southeast 197 227 5,000  Level Chicago Center
02:30AM 41.3214 -86.3408 113° Southeast 200 230 5,000  Level Chicago Center
02:31AM 41.3019 -86.2736 111° Southeast 198 228 5,000  Level Chicago Center
02:32AM 41.2781 -86.1933 112° Southeast 196 226 5,000  Level Chicago Center
02:33AM 41.2561 -86.1247 113° Southeast 200 230 5,000  Level Chicago Center
02:34AM 41.2369 -86.0575 111° Southeast 197 227 5,000  Level Chicago Center
02:35AM 41.2156 -85.9889 112° Southeast 200 230 5,000  Level Chicago Center
02:36AM 41.1953 -85.9211 112° Southeast 200 230 5,000  Level Chicago Center
02:37AM 41.1750 -85.8539 112° Southeast 198 228 5,000 -120 Level Chicago Center
02:38AM 41.1550 -85.7867 112° Southeast 198 228 4,800 -300 Descending Chicago Center
02:39AM 41.1364 -85.7158 109° East 200 230 4,500 -360 Descending Chicago Center
02:40AM 41.1147 -85.6461 112° Southeast 203 234 4,100 -420 Descending Chicago Center
02:41AM 41.0942 -85.5789 112° Southeast 202 232 3,700 -420 Descending Chicago Center
02:42AM 41.0742 -85.5128 112° Southeast 198 228 3,300 -420 Descending Chicago Center
02:43AM 41.0544 -85.4483 112° Southeast 194 223 2,900 -180 Descending Chicago Center
02:44AM 41.0364 -85.3872 111° Southeast 188 216 3,000 60 Climbing Chicago Center
02:45AM 41.0194 -85.3294 111° Southeast 179 206 3,100 -360 Climbing Chicago Center
02:46AM 41.0169 -85.2733 93° East 166 191 2,300 -780 Descending Chicago Center
02:47AM 41.0108 -85.2219 99° East 150 173 1,600 -720 Descending Chicago Center
02:49AM 40.9785 -85.1952 124° Southeast  Level Estimated